sensor_id;sensor_type;location;lat;lon;timestamp;temperature;humidity
46634;DHT22;32362;49.986;8.026;2023-04-15T00:08:13;4.20;99.90
46634;DHT22;32362;49.986;8.026;2023-04-15T00:34:54;4.20;99.90
46634;DHT22;32362;49.986;8.026;2023-04-15T01:01:35;3.80;99.90
46634;DHT22;32362;49.986;8.026;2023-04-15T01:28:16;3.30;99.90
46634;DHT22;32362;49.986;8.026;2023-04-15T01:54:57;3.10;99.90
46634;DHT22;32362;49.986;8.026;2023-04-15T02:21:52;2.60;99.90
46634;DHT22;32362;49.986;8.026;2023-04-15T02:48:33;2.60;99.90
46634;DHT22;32362;49.986;8.026;2023-04-15T03:15:17;2.40;99.90
46634;DHT22;32362;49.986;8.026;2023-04-15T03:42:02;2.10;99.90
46634;DHT22;32362;49.986;8.026;2023-04-15T04:08:43;1.80;99.90
46634;DHT22;32362;49.986;8.026;2023-04-15T04:35:24;1.60;99.90
46634;DHT22;32362;49.986;8.026;2023-04-15T05:02:08;1.40;99.90
46634;DHT22;32362;49.986;8.026;2023-04-15T05:28:48;1.70;99.90
46634;DHT22;32362;49.986;8.026;2023-04-15T05:55:29;1.90;99.90
46634;DHT22;32362;49.986;8.026;2023-04-15T06:22:10;2.70;99.90
46634;DHT22;32362;49.986;8.026;2023-04-15T06:48:51;4.50;99.90
46634;DHT22;32362;49.986;8.026;2023-04-15T07:15:34;6.10;99.90
46634;DHT22;32362;49.986;8.026;2023-04-15T07:42:15;7.20;99.90
46634;DHT22;32362;49.986;8.026;2023-04-15T08:08:56;10.50;92.70
46634;DHT22;32362;49.986;8.026;2023-04-15T08:35:36;10.90;90.40
46634;DHT22;32362;49.986;8.026;2023-04-15T09:02:17;12.50;85.30
46634;DHT22;32362;49.986;8.026;2023-04-15T09:29:03;17.20;69.10
46634;DHT22;32362;49.986;8.026;2023-04-15T09:56:04;16.80;61.60
46634;DHT22;32362;49.986;8.026;2023-04-15T10:22:47;19.30;50.20
46634;DHT22;32362;49.986;8.026;2023-04-15T10:49:47;21.40;44.30
46634;DHT22;32362;49.986;8.026;2023-04-15T11:16:28;24.30;38.50
46634;DHT22;32362;49.986;8.026;2023-04-15T12:09:55;20.70;39.50
46634;DHT22;32362;49.986;8.026;2023-04-15T12:36:36;20.00;42.00
46634;DHT22;32362;49.986;8.026;2023-04-15T13:03:17;21.70;42.90
46634;DHT22;32362;49.986;8.026;2023-04-15T13:29:58;19.40;49.60
46634;DHT22;32362;49.986;8.026;2023-04-15T13:56:41;18.30;52.00
46634;DHT22;32362;49.986;8.026;2023-04-15T14:23:37;15.40;74.10
46634;DHT22;32362;49.986;8.026;2023-04-15T14:50:17;14.70;72.50
46634;DHT22;32362;49.986;8.026;2023-04-15T15:16:58;13.50;82.40
46634;DHT22;32362;49.986;8.026;2023-04-15T15:43:38;13.40;85.00
46634;DHT22;32362;49.986;8.026;2023-04-15T16:10:22;13.10;83.10
46634;DHT22;32362;49.986;8.026;2023-04-15T16:37:03;11.80;92.60
46634;DHT22;32362;49.986;8.026;2023-04-15T17:03:43;10.80;99.90
46634;DHT22;32362;49.986;8.026;2023-04-15T17:30:25;10.30;99.90
46634;DHT22;32362;49.986;8.026;2023-04-15T17:57:06;8.80;99.90
46634;DHT22;32362;49.986;8.026;2023-04-15T18:23:46;10.00;99.90
46634;DHT22;32362;49.986;8.026;2023-04-15T18:50:27;10.00;99.90
46634;DHT22;32362;49.986;8.026;2023-04-15T19:17:07;9.90;99.90
46634;DHT22;32362;49.986;8.026;2023-04-15T19:43:48;10.00;99.90
46634;DHT22;32362;49.986;8.026;2023-04-15T20:10:29;10.10;99.90
46634;DHT22;32362;49.986;8.026;2023-04-15T20:37:10;10.20;99.90
46634;DHT22;32362;49.986;8.026;2023-04-15T21:03:51;10.20;99.90
46634;DHT22;32362;49.986;8.026;2023-04-15T21:30:32;10.20;99.90
46634;DHT22;32362;49.986;8.026;2023-04-15T21:57:12;10.30;99.90
46634;DHT22;32362;49.986;8.026;2023-04-15T22:23:53;10.20;99.90
46634;DHT22;32362;49.986;8.026;2023-04-15T22:50:35;9.90;99.90
46634;DHT22;32362;49.986;8.026;2023-04-15T23:17:16;9.90;99.90
46634;DHT22;32362;49.986;8.026;2023-04-15T23:43:56;9.80;99.90
